sensor_id;sensor_type;location;lat;lon;timestamp;pressure;altitude;pressure_sealevel;temperature;humidity
60258;BME280;46115;44.484;11.314;2023-04-19T00:00:50;100445.19;;;11.75;72.60
60258;BME280;46115;44.484;11.314;2023-04-19T00:04:52;100446.19;;;11.90;71.97
60258;BME280;46115;44.484;11.314;2023-04-19T00:08:56;100443.47;;;11.92;72.24
60258;BME280;46115;44.484;11.314;2023-04-19T00:12:59;100443.03;;;11.99;72.08
60258;BME280;46115;44.484;11.314;2023-04-19T00:17:01;100436.28;;;11.94;72.18
60258;BME280;46115;44.484;11.314;2023-04-19T00:21:04;100438.31;;;12.04;71.68
60258;BME280;46115;44.484;11.314;2023-04-19T00:25:08;100431.66;;;11.97;72.61
60258;BME280;46115;44.484;11.314;2023-04-19T00:29:10;100433.63;;;12.25;71.37
60258;BME280;46115;44.484;11.314;2023-04-19T00:33:13;100424.81;;;11.93;71.52
60258;BME280;46115;44.484;11.314;2023-04-19T00:37:16;100407.13;;;11.94;71.55
60258;BME280;46115;44.484;11.314;2023-04-19T00:41:19;100423.72;;;11.97;71.83
60258;BME280;46115;44.484;11.314;2023-04-19T00:45:21;100428.34;;;11.94;72.46
60258;BME280;46115;44.484;11.314;2023-04-19T00:49:27;100422.34;;;11.57;73.58
60258;BME280;46115;44.484;11.314;2023-04-19T00:53:30;100411.25;;;11.50;73.68
60258;BME280;46115;44.484;11.314;2023-04-19T00:57:35;100415.59;;;11.51;73.53
60258;BME280;46115;44.484;11.314;2023-04-19T01:01:38;100408.47;;;11.36;74.14
60258;BME280;46115;44.484;11.314;2023-04-19T01:05:41;100397.16;;;11.17;74.90
60258;BME280;46115;44.484;11.314;2023-04-19T01:09:47;100396.16;;;10.85;76.39
60258;BME280;46115;44.484;11.314;2023-04-19T01:13:50;100404.97;;;10.85;76.22
60258;BME280;46115;44.484;11.314;2023-04-19T01:17:53;100403.41;;;10.81;76.84
60258;BME280;46115;44.484;11.314;2023-04-19T01:21:56;100390.44;;;10.77;76.04
60258;BME280;46115;44.484;11.314;2023-04-19T01:26:01;100408.50;;;11.02;75.78
60258;BME280;46115;44.484;11.314;2023-04-19T01:30:05;100391.78;;;11.01;75.48
60258;BME280;46115;44.484;11.314;2023-04-19T01:34:07;100395.75;;;11.10;74.74
60258;BME280;46115;44.484;11.314;2023-04-19T01:38:13;100397.84;;;11.03;74.90
60258;BME280;46115;44.484;11.314;2023-04-19T01:42:17;100386.22;;;10.90;75.98
60258;BME280;46115;44.484;11.314;2023-04-19T01:46:19;100378.28;;;10.90;76.33
60258;BME280;46115;44.484;11.314;2023-04-19T01:50:21;100381.94;;;10.87;76.98
60258;BME280;46115;44.484;11.314;2023-04-19T01:54:23;100384.56;;;10.70;76.75
60258;BME280;46115;44.484;11.314;2023-04-19T01:58:28;100381.78;;;10.90;76.00
60258;BME280;46115;44.484;11.314;2023-04-19T02:02:30;100369.97;;;10.80;76.71
60258;BME280;46115;44.484;11.314;2023-04-19T02:06:32;100382.63;;;10.74;76.87
60258;BME280;46115;44.484;11.314;2023-04-19T02:10:38;100372.44;;;10.83;76.36
60258;BME280;46115;44.484;11.314;2023-04-19T02:14:41;100377.72;;;11.01;75.45
60258;BME280;46115;44.484;11.314;2023-04-19T02:18:44;100370.25;;;10.91;76.04
60258;BME280;46115;44.484;11.314;2023-04-19T02:22:46;100369.66;;;10.86;76.41
60258;BME280;46115;44.484;11.314;2023-04-19T02:26:48;100364.34;;;10.86;76.06
60258;BME280;46115;44.484;11.314;2023-04-19T02:30:52;100373.31;;;10.84;76.68
60258;BME280;46115;44.484;11.314;2023-04-19T02:34:55;100371.97;;;10.75;76.93
60258;BME280;46115;44.484;11.314;2023-04-19T02:38:57;100364.69;;;10.80;76.45
60258;BME280;46115;44.484;11.314;2023-04-19T02:43:00;100354.09;;;10.63;76.73
60258;BME280;46115;44.484;11.314;2023-04-19T02:47:03;100369.88;;;10.47;77.63
60258;BME280;46115;44.484;11.314;2023-04-19T02:51:06;100368.41;;;10.42;77.89
60258;BME280;46115;44.484;11.314;2023-04-19T02:55:10;100361.09;;;10.47;77.84
60258;BME280;46115;44.484;11.314;2023-04-19T02:59:12;100360.41;;;10.60;78.17
60258;BME280;46115;44.484;11.314;2023-04-19T03:03:17;100351.38;;;10.47;78.31
60258;BME280;46115;44.484;11.314;2023-04-19T03:07:20;100356.28;;;10.55;78.07
60258;BME280;46115;44.484;11.314;2023-04-19T03:11:22;100366.81;;;10.38;78.18
60258;BME280;46115;44.484;11.314;2023-04-19T03:15:24;100358.06;;;10.18;78.78
60258;BME280;46115;44.484;11.314;2023-04-19T03:19:28;100356.91;;;10.07;79.57
60258;BME280;46115;44.484;11.314;2023-04-19T03:23:31;100338.72;;;9.82;80.32
60258;BME280;46115;44.484;11.314;2023-04-19T03:27:35;100346.03;;;10.13;79.01
60258;BME280;46115;44.484;11.314;2023-04-19T03:31:42;100351.66;;;10.24;78.19
60258;BME280;46115;44.484;11.314;2023-04-19T03:35:48;100340.06;;;10.09;78.36
60258;BME280;46115;44.484;11.314;2023-04-19T03:39:51;100352.72;;;10.20;78.18
60258;BME280;46115;44.484;11.314;2023-04-19T03:44:00;100333.75;;;10.12;78.63
60258;BME280;46115;44.484;11.314;2023-04-19T03:48:03;100343.38;;;10.13;79.19
60258;BME280;46115;44.484;11.314;2023-04-19T03:52:07;100341.44;;;10.52;77.38
60258;BME280;46115;44.484;11.314;2023-04-19T03:56:10;100347.88;;;10.64;76.93
60258;BME280;46115;44.484;11.314;2023-04-19T04:00:12;100350.84;;;10.58;76.22
60258;BME280;46115;44.484;11.314;2023-04-19T04:04:15;100353.69;;;10.36;78.33
60258;BME280;46115;44.484;11.314;2023-04-19T04:08:20;100352.31;;;9.74;80.45
60258;BME280;46115;44.484;11.314;2023-04-19T04:12:22;100350.66;;;9.72;80.66
60258;BME280;46115;44.484;11.314;2023-04-19T04:16:27;100349.16;;;9.85;80.52
60258;BME280;46115;44.484;11.314;2023-04-19T04:20:30;100348.28;;;9.84;79.92
60258;BME280;46115;44.484;11.314;2023-04-19T04:24:40;100360.06;;;9.58;80.89
60258;BME280;46115;44.484;11.314;2023-04-19T04:29:06;100355.72;;;9.76;80.09
60258;BME280;46115;44.484;11.314;2023-04-19T04:33:10;100350.06;;;9.84;80.41
60258;BME280;46115;44.484;11.314;2023-04-19T04:37:16;100363.34;;;9.82;80.35
60258;BME280;46115;44.484;11.314;2023-04-19T04:41:20;100355.44;;;9.82;80.15
60258;BME280;46115;44.484;11.314;2023-04-19T04:45:23;100314.28;;;9.59;80.31
60258;BME280;46115;44.484;11.314;2023-04-19T04:49:25;100352.28;;;9.93;80.25
60258;BME280;46115;44.484;11.314;2023-04-19T04:53:28;100357.06;;;9.85;80.82
60258;BME280;46115;44.484;11.314;2023-04-19T04:57:31;100351.34;;;9.94;80.54
60258;BME280;46115;44.484;11.314;2023-04-19T05:01:35;100359.66;;;10.04;80.22
60258;BME280;46115;44.484;11.314;2023-04-19T05:05:38;100360.97;;;9.95;80.43
60258;BME280;46115;44.484;11.314;2023-04-19T05:09:41;100370.81;;;10.10;79.97
60258;BME280;46115;44.484;11.314;2023-04-19T05:13:46;100361.31;;;10.25;80.00
60258;BME280;46115;44.484;11.314;2023-04-19T05:17:48;100357.97;;;10.21;79.73
60258;BME280;46115;44.484;11.314;2023-04-19T05:21:51;100354.63;;;10.35;79.20
60258;BME280;46115;44.484;11.314;2023-04-19T05:25:53;100352.69;;;10.21;79.58
60258;BME280;46115;44.484;11.314;2023-04-19T05:30:00;100345.81;;;10.17;79.32
60258;BME280;46115;44.484;11.314;2023-04-19T05:34:03;100346.66;;;10.18;80.55
60258;BME280;46115;44.484;11.314;2023-04-19T05:38:06;100342.66;;;10.28;79.54
60258;BME280;46115;44.484;11.314;2023-04-19T05:42:09;100358.91;;;10.38;79.39
60258;BME280;46115;44.484;11.314;2023-04-19T05:46:13;100355.78;;;10.29;79.75
60258;BME280;46115;44.484;11.314;2023-04-19T05:50:15;100356.59;;;10.66;78.12
60258;BME280;46115;44.484;11.314;2023-04-19T05:54:28;100358.19;;;11.03;76.27
60258;BME280;46115;44.484;11.314;2023-04-19T05:58:34;100357.47;;;11.17;75.67
60258;BME280;46115;44.484;11.314;2023-04-19T06:02:38;100361.69;;;11.37;74.94
60258;BME280;46115;44.484;11.314;2023-04-19T06:06:41;100333.03;;;11.45;73.84
60258;BME280;46115;44.484;11.314;2023-04-19T06:10:43;100374.06;;;11.85;73.40
60258;BME280;46115;44.484;11.314;2023-04-19T06:14:48;100370.34;;;12.35;71.44
60258;BME280;46115;44.484;11.314;2023-04-19T06:18:52;100372.81;;;12.68;69.84
60258;BME280;46115;44.484;11.314;2023-04-19T06:22:54;100376.09;;;14.01;66.81
60258;BME280;46115;44.484;11.314;2023-04-19T06:26:57;100378.34;;;13.66;67.43
60258;BME280;46115;44.484;11.314;2023-04-19T06:30:59;100374.50;;;13.98;66.37
60258;BME280;46115;44.484;11.314;2023-04-19T06:35:04;100368.06;;;14.42;65.20
60258;BME280;46115;44.484;11.314;2023-04-19T06:39:07;100364.94;;;14.23;65.95
60258;BME280;46115;44.484;11.314;2023-04-19T06:43:09;100370.63;;;15.47;62.86
60258;BME280;46115;44.484;11.314;2023-04-19T06:47:12;100367.34;;;15.69;60.80
60258;BME280;46115;44.484;11.314;2023-04-19T06:51:15;100371.09;;;15.66;60.81
60258;BME280;46115;44.484;11.314;2023-04-19T06:55:18;100367.25;;;16.31;58.57
60258;BME280;46115;44.484;11.314;2023-04-19T06:59:21;100364.84;;;15.78;59.81
60258;BME280;46115;44.484;11.314;2023-04-19T07:03:25;100372.72;;;16.16;58.75
60258;BME280;46115;44.484;11.314;2023-04-19T07:07:28;100367.09;;;16.56;57.73
60258;BME280;46115;44.484;11.314;2023-04-19T07:11:31;100370.09;;;17.44;55.86
60258;BME280;46115;44.484;11.314;2023-04-19T07:15:34;100377.03;;;17.35;54.79
60258;BME280;46115;44.484;11.314;2023-04-19T07:19:37;100364.63;;;17.68;53.74
60258;BME280;46115;44.484;11.314;2023-04-19T07:23:40;100359.75;;;18.06;53.61
60258;BME280;46115;44.484;11.314;2023-04-19T07:27:43;100329.84;;;18.86;50.40
60258;BME280;46115;44.484;11.314;2023-04-19T07:31:45;100341.44;;;18.55;50.53
60258;BME280;46115;44.484;11.314;2023-04-19T07:35:47;100354.94;;;18.85;49.52
60258;BME280;46115;44.484;11.314;2023-04-19T07:39:51;100334.63;;;18.83;50.35
60258;BME280;46115;44.484;11.314;2023-04-19T07:43:54;100351.34;;;18.96;49.26
60258;BME280;46115;44.484;11.314;2023-04-19T07:47:56;100362.47;;;20.91;47.30
60258;BME280;46115;44.484;11.314;2023-04-19T07:51:58;100354.16;;;20.65;46.37
60258;BME280;46115;44.484;11.314;2023-04-19T07:56:03;100354.88;;;19.88;45.73
60258;BME280;46115;44.484;11.314;2023-04-19T08:00:07;100345.94;;;20.66;46.08
60258;BME280;46115;44.484;11.314;2023-04-19T08:04:16;100348.31;;;20.79;45.22
60258;BME280;46115;44.484;11.314;2023-04-19T08:08:19;100348.91;;;22.03;42.75
60258;BME280;46115;44.484;11.314;2023-04-19T08:12:23;100350.28;;;22.07;42.49
60258;BME280;46115;44.484;11.314;2023-04-19T08:16:25;100341.31;;;22.17;41.03
60258;BME280;46115;44.484;11.314;2023-04-19T08:20:29;100344.00;;;22.70;41.02
60258;BME280;46115;44.484;11.314;2023-04-19T08:24:32;100347.00;;;23.62;37.70
60258;BME280;46115;44.484;11.314;2023-04-19T08:28:36;100345.22;;;24.62;36.49
60258;BME280;46115;44.484;11.314;2023-04-19T08:32:38;100352.84;;;25.07;34.72
60258;BME280;46115;44.484;11.314;2023-04-19T08:36:40;100315.78;;;24.18;36.70
60258;BME280;46115;44.484;11.314;2023-04-19T08:40:46;100337.63;;;23.49;37.67
60258;BME280;46115;44.484;11.314;2023-04-19T08:44:53;100346.66;;;25.46;35.22
60258;BME280;46115;44.484;11.314;2023-04-19T08:48:58;100342.25;;;25.53;34.46
60258;BME280;46115;44.484;11.314;2023-04-19T08:53:00;100343.06;;;25.70;34.00
60258;BME280;46115;44.484;11.314;2023-04-19T08:57:04;100316.25;;;25.83;34.37
60258;BME280;46115;44.484;11.314;2023-04-19T09:01:09;100333.41;;;26.37;33.70
60258;BME280;46115;44.484;11.314;2023-04-19T09:05:12;100332.88;;;25.16;34.69
60258;BME280;46115;44.484;11.314;2023-04-19T09:09:17;100331.91;;;26.04;33.40
60258;BME280;46115;44.484;11.314;2023-04-19T09:13:19;100318.84;;;26.76;32.48
60258;BME280;46115;44.484;11.314;2023-04-19T09:17:23;100313.72;;;26.13;32.54
60258;BME280;46115;44.484;11.314;2023-04-19T09:21:29;100317.88;;;25.53;33.68
60258;BME280;46115;44.484;11.314;2023-04-19T09:25:32;100311.75;;;26.75;32.57
60258;BME280;46115;44.484;11.314;2023-04-19T09:29:35;100303.41;;;26.77;33.35
60258;BME280;46115;44.484;11.314;2023-04-19T09:33:39;100300.41;;;26.71;32.67
60258;BME280;46115;44.484;11.314;2023-04-19T09:37:41;100297.31;;;26.37;34.40
60258;BME280;46115;44.484;11.314;2023-04-19T09:41:50;100286.34;;;25.76;35.53
60258;BME280;46115;44.484;11.314;2023-04-19T09:45:52;100273.41;;;23.94;36.32
60258;BME280;46115;44.484;11.314;2023-04-19T09:50:05;100280.56;;;24.69;35.79
60258;BME280;46115;44.484;11.314;2023-04-19T09:54:09;100268.22;;;24.34;34.53
60258;BME280;46115;44.484;11.314;2023-04-19T09:58:12;100255.28;;;23.62;36.34
60258;BME280;46115;44.484;11.314;2023-04-19T10:02:14;100254.28;;;22.78;36.72
60258;BME280;46115;44.484;11.314;2023-04-19T10:06:19;100261.69;;;23.61;35.59
60258;BME280;46115;44.484;11.314;2023-04-19T10:10:22;100245.66;;;22.48;38.52
60258;BME280;46115;44.484;11.314;2023-04-19T10:14:25;100244.00;;;22.99;37.54
60258;BME280;46115;44.484;11.314;2023-04-19T10:18:30;100252.66;;;23.11;37.11
60258;BME280;46115;44.484;11.314;2023-04-19T10:22:35;100239.53;;;23.16;36.92
60258;BME280;46115;44.484;11.314;2023-04-19T10:27:07;100236.09;;;22.97;38.57
60258;BME280;46115;44.484;11.314;2023-04-19T10:31:11;100228.72;;;23.08;37.83
60258;BME280;46115;44.484;11.314;2023-04-19T10:35:18;100221.78;;;22.79;38.03
60258;BME280;46115;44.484;11.314;2023-04-19T10:39:42;100213.47;;;22.64;37.81
60258;BME280;46115;44.484;11.314;2023-04-19T10:43:46;100197.44;;;22.37;38.79
60258;BME280;46115;44.484;11.314;2023-04-19T10:47:50;100183.25;;;21.91;38.89
60258;BME280;46115;44.484;11.314;2023-04-19T10:51:53;100194.50;;;20.86;40.73
60258;BME280;46115;44.484;11.314;2023-04-19T10:55:57;100182.66;;;20.70;40.90
60258;BME280;46115;44.484;11.314;2023-04-19T11:00:18;100161.56;;;20.84;41.78
60258;BME280;46115;44.484;11.314;2023-04-19T11:04:23;100154.72;;;21.80;41.29
60258;BME280;46115;44.484;11.314;2023-04-19T11:08:28;100151.44;;;21.87;40.07
60258;BME280;46115;44.484;11.314;2023-04-19T11:12:32;100152.34;;;21.77;40.04
60258;BME280;46115;44.484;11.314;2023-04-19T11:16:35;100143.41;;;21.77;40.88
60258;BME280;46115;44.484;11.314;2023-04-19T11:20:37;100138.34;;;21.11;40.64
60258;BME280;46115;44.484;11.314;2023-04-19T11:24:44;100131.66;;;21.42;40.59
60258;BME280;46115;44.484;11.314;2023-04-19T11:28:48;100128.94;;;20.23;42.66
60258;BME280;46115;44.484;11.314;2023-04-19T11:32:52;100132.56;;;20.41;41.98
60258;BME280;46115;44.484;11.314;2023-04-19T11:36:54;100120.94;;;20.60;41.55
60258;BME280;46115;44.484;11.314;2023-04-19T11:40:58;100112.28;;;21.21;40.14
60258;BME280;46115;44.484;11.314;2023-04-19T11:45:03;100106.22;;;20.92;42.05
60258;BME280;46115;44.484;11.314;2023-04-19T11:49:05;100104.78;;;21.42;42.38
60258;BME280;46115;44.484;11.314;2023-04-19T11:53:10;100089.19;;;21.01;41.46
60258;BME280;46115;44.484;11.314;2023-04-19T11:57:12;100093.47;;;21.39;41.73
60258;BME280;46115;44.484;11.314;2023-04-19T12:01:18;100059.44;;;21.47;40.20
60258;BME280;46115;44.484;11.314;2023-04-19T12:05:21;100062.16;;;21.30;40.15
60258;BME280;46115;44.484;11.314;2023-04-19T12:09:24;100075.63;;;20.75;41.20
60258;BME280;46115;44.484;11.314;2023-04-19T12:13:26;100074.59;;;20.58;42.06
60258;BME280;46115;44.484;11.314;2023-04-19T12:17:30;100064.75;;;21.22;41.48
60258;BME280;46115;44.484;11.314;2023-04-19T12:21:32;100058.53;;;20.48;42.55
60258;BME280;46115;44.484;11.314;2023-04-19T12:25:35;100044.75;;;20.61;42.49
60258;BME280;46115;44.484;11.314;2023-04-19T12:29:38;100047.22;;;21.17;41.87
60258;BME280;46115;44.484;11.314;2023-04-19T12:33:42;100010.44;;;21.00;41.15
60258;BME280;46115;44.484;11.314;2023-04-19T12:37:44;100026.78;;;20.89;41.42
60258;BME280;46115;44.484;11.314;2023-04-19T12:41:46;100031.47;;;21.23;41.71
60258;BME280;46115;44.484;11.314;2023-04-19T12:45:49;100029.81;;;21.39;41.21
60258;BME280;46115;44.484;11.314;2023-04-19T12:49:53;100029.69;;;20.96;41.39
60258;BME280;46115;44.484;11.314;2023-04-19T12:53:56;100020.63;;;20.97;41.02
60258;BME280;46115;44.484;11.314;2023-04-19T12:57:58;99965.47;;;20.84;41.88
60258;BME280;46115;44.484;11.314;2023-04-19T13:02:01;100001.00;;;20.51;41.47
60258;BME280;46115;44.484;11.314;2023-04-19T13:06:05;99994.97;;;20.02;42.24
60258;BME280;46115;44.484;11.314;2023-04-19T13:10:09;99978.00;;;20.39;42.88
60258;BME280;46115;44.484;11.314;2023-04-19T13:14:12;99979.34;;;20.25;42.23
60258;BME280;46115;44.484;11.314;2023-04-19T13:18:14;99956.94;;;20.44;41.87
60258;BME280;46115;44.484;11.314;2023-04-19T13:22:18;99963.44;;;20.51;41.67
60258;BME280;46115;44.484;11.314;2023-04-19T13:26:20;99951.06;;;20.58;41.09
60258;BME280;46115;44.484;11.314;2023-04-19T13:30:23;99946.69;;;20.30;41.45
60258;BME280;46115;44.484;11.314;2023-04-19T13:34:26;99940.09;;;20.51;41.96
60258;BME280;46115;44.484;11.314;2023-04-19T13:38:30;99931.44;;;20.93;41.03
60258;BME280;46115;44.484;11.314;2023-04-19T13:42:32;99926.53;;;20.89;41.47
60258;BME280;46115;44.484;11.314;2023-04-19T13:46:34;99917.22;;;21.01;41.22
60258;BME280;46115;44.484;11.314;2023-04-19T13:50:37;99905.06;;;20.25;42.24
60258;BME280;46115;44.484;11.314;2023-04-19T13:54:40;99895.63;;;20.21;42.39
60258;BME280;46115;44.484;11.314;2023-04-19T13:58:43;99909.19;;;20.20;42.76
60258;BME280;46115;44.484;11.314;2023-04-19T14:02:46;99897.31;;;20.22;43.02
60258;BME280;46115;44.484;11.314;2023-04-19T14:06:49;99894.78;;;20.48;41.84
60258;BME280;46115;44.484;11.314;2023-04-19T14:10:52;99883.75;;;20.42;41.76
60258;BME280;46115;44.484;11.314;2023-04-19T14:14:55;99877.50;;;20.51;42.35
60258;BME280;46115;44.484;11.314;2023-04-19T14:18:57;99871.53;;;20.30;42.19
60258;BME280;46115;44.484;11.314;2023-04-19T14:23:00;99865.91;;;20.05;42.66
60258;BME280;46115;44.484;11.314;2023-04-19T14:27:03;99862.56;;;20.48;41.91
60258;BME280;46115;44.484;11.314;2023-04-19T14:31:06;99862.72;;;20.37;41.85
60258;BME280;46115;44.484;11.314;2023-04-19T14:35:08;99856.78;;;20.43;43.12
60258;BME280;46115;44.484;11.314;2023-04-19T14:39:12;99821.69;;;20.27;42.87
60258;BME280;46115;44.484;11.314;2023-04-19T14:43:15;99852.34;;;20.52;42.83
60258;BME280;46115;44.484;11.314;2023-04-19T14:47:18;99849.41;;;20.45;43.09
60258;BME280;46115;44.484;11.314;2023-04-19T14:51:20;99845.81;;;20.54;43.43
60258;BME280;46115;44.484;11.314;2023-04-19T14:55:23;99837.22;;;20.69;42.44
60258;BME280;46115;44.484;11.314;2023-04-19T14:59:28;99834.63;;;20.59;42.73
60258;BME280;46115;44.484;11.314;2023-04-19T15:03:31;99840.06;;;20.49;42.64
60258;BME280;46115;44.484;11.314;2023-04-19T15:07:33;99826.94;;;20.46;42.99
60258;BME280;46115;44.484;11.314;2023-04-19T15:11:36;99820.72;;;20.46;42.82
60258;BME280;46115;44.484;11.314;2023-04-19T15:15:39;99830.19;;;20.50;42.84
60258;BME280;46115;44.484;11.314;2023-04-19T15:19:42;99831.25;;;20.12;43.66
60258;BME280;46115;44.484;11.314;2023-04-19T15:23:47;99822.44;;;20.47;42.90
60258;BME280;46115;44.484;11.314;2023-04-19T15:27:49;99821.44;;;20.48;43.61
60258;BME280;46115;44.484;11.314;2023-04-19T15:31:53;99821.56;;;19.83;43.63
60258;BME280;46115;44.484;11.314;2023-04-19T15:35:56;99823.19;;;20.12;43.46
60258;BME280;46115;44.484;11.314;2023-04-19T15:39:59;99817.56;;;20.15;44.21
60258;BME280;46115;44.484;11.314;2023-04-19T15:44:02;99836.19;;;20.16;43.42
60258;BME280;46115;44.484;11.314;2023-04-19T15:48:06;99821.22;;;20.32;43.17
60258;BME280;46115;44.484;11.314;2023-04-19T15:52:08;99819.56;;;20.31;43.38
60258;BME280;46115;44.484;11.314;2023-04-19T15:56:10;99818.94;;;20.37;43.29
60258;BME280;46115;44.484;11.314;2023-04-19T16:00:13;99826.66;;;20.04;43.82
60258;BME280;46115;44.484;11.314;2023-04-19T16:04:18;99822.72;;;19.99;43.71
60258;BME280;46115;44.484;11.314;2023-04-19T16:08:20;99821.06;;;19.98;43.96
60258;BME280;46115;44.484;11.314;2023-04-19T16:12:23;99829.13;;;20.15;43.82
60258;BME280;46115;44.484;11.314;2023-04-19T16:16:25;99824.41;;;19.82;44.76
60258;BME280;46115;44.484;11.314;2023-04-19T16:20:32;99819.75;;;19.74;45.34
60258;BME280;46115;44.484;11.314;2023-04-19T16:24:34;99823.97;;;20.04;44.91
60258;BME280;46115;44.484;11.314;2023-04-19T16:28:37;99823.28;;;19.75;44.87
60258;BME280;46115;44.484;11.314;2023-04-19T16:32:40;99813.53;;;19.83;44.73
60258;BME280;46115;44.484;11.314;2023-04-19T16:36:44;99810.63;;;19.67;44.91
60258;BME280;46115;44.484;11.314;2023-04-19T16:40:47;99817.75;;;19.49;45.45
60258;BME280;46115;44.484;11.314;2023-04-19T16:44:50;99819.03;;;19.54;46.36
60258;BME280;46115;44.484;11.314;2023-04-19T16:48:52;99812.13;;;19.42;47.03
60258;BME280;46115;44.484;11.314;2023-04-19T16:52:56;99815.53;;;19.72;46.78
60258;BME280;46115;44.484;11.314;2023-04-19T16:56:58;99808.19;;;19.37;47.93
60258;BME280;46115;44.484;11.314;2023-04-19T17:01:02;99815.94;;;19.77;47.63
60258;BME280;46115;44.484;11.314;2023-04-19T17:05:05;99826.34;;;19.52;48.89
60258;BME280;46115;44.484;11.314;2023-04-19T17:09:09;99833.06;;;19.29;50.27
60258;BME280;46115;44.484;11.314;2023-04-19T17:13:12;99836.38;;;18.94;51.26
60258;BME280;46115;44.484;11.314;2023-04-19T17:17:14;99835.63;;;19.21;50.59
60258;BME280;46115;44.484;11.314;2023-04-19T17:21:19;99837.19;;;19.04;50.94
60258;BME280;46115;44.484;11.314;2023-04-19T17:25:22;99851.31;;;18.58;51.58
60258;BME280;46115;44.484;11.314;2023-04-19T17:29:25;99850.19;;;18.41;51.35
60258;BME280;46115;44.484;11.314;2023-04-19T17:33:27;99856.56;;;18.79;51.27
60258;BME280;46115;44.484;11.314;2023-04-19T17:37:30;99847.22;;;18.15;53.06
60258;BME280;46115;44.484;11.314;2023-04-19T17:41:34;99851.84;;;18.13;53.46
60258;BME280;46115;44.484;11.314;2023-04-19T17:45:36;99837.81;;;17.71;55.04
60258;BME280;46115;44.484;11.314;2023-04-19T17:49:39;99838.19;;;18.16;54.14
60258;BME280;46115;44.484;11.314;2023-04-19T17:53:42;99839.75;;;18.28;54.60
60258;BME280;46115;44.484;11.314;2023-04-19T17:57:46;99838.94;;;17.38;57.71
60258;BME280;46115;44.484;11.314;2023-04-19T18:01:48;99842.31;;;17.70;57.59
60258;BME280;46115;44.484;11.314;2023-04-19T18:05:50;99841.94;;;17.24;58.77
60258;BME280;46115;44.484;11.314;2023-04-19T18:09:53;99837.66;;;16.70;60.99
60258;BME280;46115;44.484;11.314;2023-04-19T18:13:56;99826.28;;;16.36;62.89
60258;BME280;46115;44.484;11.314;2023-04-19T18:17:59;99827.56;;;16.41;62.83
60258;BME280;46115;44.484;11.314;2023-04-19T18:22:01;99816.44;;;16.04;64.63
60258;BME280;46115;44.484;11.314;2023-04-19T18:26:04;99798.28;;;15.98;64.44
60258;BME280;46115;44.484;11.314;2023-04-19T18:30:08;99838.84;;;16.02;64.50
60258;BME280;46115;44.484;11.314;2023-04-19T18:34:11;99831.97;;;15.99;64.47
60258;BME280;46115;44.484;11.314;2023-04-19T18:38:13;99836.78;;;16.05;63.88
60258;BME280;46115;44.484;11.314;2023-04-19T18:42:16;99840.22;;;15.74;64.56
60258;BME280;46115;44.484;11.314;2023-04-19T22:06:08;99921.72;;;14.25;70.77
60258;BME280;46115;44.484;11.314;2023-04-19T22:10:11;99916.00;;;14.05;72.01
60258;BME280;46115;44.484;11.314;2023-04-19T22:14:13;99936.13;;;14.70;70.43
60258;BME280;46115;44.484;11.314;2023-04-19T22:18:17;99927.97;;;14.60;69.80
60258;BME280;46115;44.484;11.314;2023-04-19T22:22:21;99935.41;;;14.31;71.31
60258;BME280;46115;44.484;11.314;2023-04-19T22:26:23;99928.78;;;14.37;70.44
60258;BME280;46115;44.484;11.314;2023-04-19T22:30:26;99940.75;;;14.55;70.39
60258;BME280;46115;44.484;11.314;2023-04-19T22:34:29;99932.13;;;14.28;70.82
60258;BME280;46115;44.484;11.314;2023-04-19T22:38:33;99926.88;;;14.02;71.87
60258;BME280;46115;44.484;11.314;2023-04-19T22:42:35;99929.09;;;14.69;69.76
60258;BME280;46115;44.484;11.314;2023-04-19T22:46:38;99929.03;;;14.21;71.59
60258;BME280;46115;44.484;11.314;2023-04-19T22:50:40;99924.13;;;13.91;72.95
60258;BME280;46115;44.484;11.314;2023-04-19T22:54:44;99929.22;;;14.44;71.02
60258;BME280;46115;44.484;11.314;2023-04-19T22:58:47;99935.81;;;14.86;68.98
60258;BME280;46115;44.484;11.314;2023-04-19T23:02:49;99926.09;;;14.50;70.03
60258;BME280;46115;44.484;11.314;2023-04-19T23:06:51;99938.81;;;14.21;71.77
60258;BME280;46115;44.484;11.314;2023-04-19T23:10:55;99941.66;;;14.43;71.12
60258;BME280;46115;44.484;11.314;2023-04-19T23:14:57;99923.28;;;13.78;73.54
60258;BME280;46115;44.484;11.314;2023-04-19T23:18:59;99936.56;;;13.91;73.31
60258;BME280;46115;44.484;11.314;2023-04-19T23:23:02;99931.94;;;14.05;72.90
60258;BME280;46115;44.484;11.314;2023-04-19T23:27:06;99923.75;;;14.09;71.91
60258;BME280;46115;44.484;11.314;2023-04-19T23:31:08;99928.94;;;14.23;70.91
60258;BME280;46115;44.484;11.314;2023-04-19T23:35:11;99927.66;;;14.28;70.27
60258;BME280;46115;44.484;11.314;2023-04-19T23:39:14;99930.44;;;14.51;70.79
60258;BME280;46115;44.484;11.314;2023-04-19T23:43:18;99926.16;;;14.61;69.93
60258;BME280;46115;44.484;11.314;2023-04-19T23:47:20;99930.31;;;15.00;67.68
60258;BME280;46115;44.484;11.314;2023-04-19T23:51:23;99925.38;;;13.98;72.03
60258;BME280;46115;44.484;11.314;2023-04-19T23:55:25;99905.53;;;13.79;71.67
60258;BME280;46115;44.484;11.314;2023-04-19T23:59:29;99910.75;;;13.80;72.14
